Terminal Aerodrome Forecast
Issued by NWS

Home | Current Version | Previous Version | Graphics & Text | Print | Product List | Glossary On
Versions: 1 2 3 4 5 6 7 8 9 10 11 12 13 14 15
000
FTUS43 KGRB 302100 AAA
TAFAUW
TAF AMD
KAUW 302129Z 3021/3118 31010KT P6SM SCT060
     FM310000 29004KT P6SM VCSH SCT040 BKN080
     FM310800 27003KT 6SM BR SCT100
     FM311300 27006KT P6SM SCT040 SCT100=

USA.gov is the U.S. government's official web portal to all federal, state and local government web resources and services.